Time,TemperatureF,DewpointF,PressureIn,WindDirection,WindDirectionDegrees,WindSpeedMPH,WindSpeedGustMPH,Humidity,HourlyPrecipIn,Conditions,Clouds,dailyrainin,SoftwareType,DateUTC
2013-02-17 00:05:00,28.7,20.0,29.69,NW,313,0.0,-999.0,70,-99.99,,,0.00,weatherlink.com 1.10,2013-02-17 05:05:00,
2013-02-17 00:21:00,28.2,20.0,29.67,WNW,297,0.0,-999.0,71,-99.99,,,0.00,weatherlink.com 1.10,2013-02-17 05:21:00,
2013-02-17 00:35:00,27.7,20.0,29.66,NW,312,0.0,-999.0,72,-99.99,,,0.00,weatherlink.com 1.10,2013-02-17 05:35:00,
2013-02-17 00:50:00,27.2,19.0,29.64,North,350,0.0,-999.0,71,-99.99,,,0.00,weatherlink.com 1.10,2013-02-17 05:50:00,
2013-02-17 01:06:00,27.1,18.0,29.66,NNW,346,0.0,-999.0,69,-99.99,,,0.00,weatherlink.com 1.10,2013-02-17 06:06:00,
2013-02-17 01:20:00,27.2,17.0,29.65,NNE,32,0.0,-999.0,66,-99.99,,,0.00,weatherlink.com 1.10,2013-02-17 06:20:00,
2013-02-17 01:35:00,27.1,16.0,29.65,NNW,336,0.0,-999.0,64,-99.99,,,0.00,weatherlink.com 1.10,2013-02-17 06:35:00,
2013-02-17 01:51:00,26.9,16.0,29.63,WNW,299,0.0,-999.0,64,-99.99,,,0.00,weatherlink.com 1.10,2013-02-17 06:51:00,
2013-02-17 02:05:00,26.5,16.0,29.64,WNW,288,0.0,-999.0,64,-99.99,,,0.00,weatherlink.com 1.10,2013-02-17 07:05:00,
2013-02-17 02:20:00,26.0,16.0,29.61,NW,313,0.0,-999.0,66,-99.99,,,0.00,weatherlink.com 1.10,2013-02-17 07:20:00,
2013-02-17 02:35:00,26.0,15.0,29.63,NNW,343,0.0,-999.0,63,-99.99,,,0.00,weatherlink.com 1.10,2013-02-17 07:35:00,
2013-02-17 02:50:00,25.8,14.0,29.62,WNW,302,0.0,-999.0,61,-99.99,,,0.00,weatherlink.com 1.10,2013-02-17 07:50:00,
2013-02-17 03:05:00,25.8,12.0,29.60,North,355,0.0,-999.0,57,-99.99,,,0.00,weatherlink.com 1.10,2013-02-17 08:05:00,
2013-02-17 03:20:00,25.5,12.0,29.59,NNW,335,0.0,-999.0,58,-99.99,,,0.00,weatherlink.com 1.10,2013-02-17 08:20:00,
2013-02-17 03:35:00,24.8,13.0,29.58,NNW,346,0.0,-999.0,62,-99.99,,,0.00,weatherlink.com 1.10,2013-02-17 08:35:00,
2013-02-17 03:50:00,24.4,14.0,29.58,NW,316,0.0,-999.0,64,-99.99,,,0.00,weatherlink.com 1.10,2013-02-17 08:50:00,
2013-02-17 04:05:00,24.0,14.0,29.58,NNE,16,0.0,-999.0,66,-99.99,,,0.00,weatherlink.com 1.10,2013-02-17 09:05:00,
2013-02-17 04:20:00,23.9,14.0,29.57,North,5,0.0,-999.0,65,-99.99,,,0.00,weatherlink.com 1.10,2013-02-17 09:20:00,
2013-02-17 04:35:00,24.1,13.0,29.56,North,355,0.0,-999.0,63,-99.99,,,0.00,weatherlink.com 1.10,2013-02-17 09:35:00,
2013-02-17 04:50:00,23.9,14.0,29.56,WNW,294,0.0,-999.0,65,-99.99,,,0.00,weatherlink.com 1.10,2013-02-17 09:50:00,
2013-02-17 05:06:00,23.0,15.0,29.55,WNW,292,0.0,-999.0,71,-99.99,,,0.00,weatherlink.com 1.10,2013-02-17 10:06:00,
2013-02-17 05:20:00,22.2,15.0,29.55,WNW,287,0.0,-999.0,74,-99.99,,,0.00,weatherlink.com 1.10,2013-02-17 10:20:00,
2013-02-17 05:35:00,21.6,15.0,29.53,WNW,284,0.0,-999.0,77,-99.99,,,0.00,weatherlink.com 1.10,2013-02-17 10:35:00,
2013-02-17 05:50:00,20.8,17.0,29.54,WSW,246,0.0,-999.0,84,-99.99,,,0.00,weatherlink.com 1.10,2013-02-17 10:50:00,
2013-02-17 06:05:00,20.1,17.0,29.52,WNW,301,0.0,-999.0,87,-99.99,,,0.00,weatherlink.com 1.10,2013-02-17 11:05:00,
2013-02-17 06:20:00,19.7,17.0,29.52,NW,318,0.0,-999.0,88,-99.99,,,0.00,weatherlink.com 1.10,2013-02-17 11:20:00,
2013-02-17 06:35:00,19.3,16.0,29.50,NW,315,0.0,-999.0,88,-99.99,,,0.00,weatherlink.com 1.10,2013-02-17 11:35:00,
2013-02-17 06:50:00,18.9,16.0,29.50,NE,51,0.0,-999.0,89,-99.99,,,0.00,weatherlink.com 1.10,2013-02-17 11:50:00,
2013-02-17 07:05:00,18.8,16.0,29.49,NNE,26,0.0,-999.0,89,-99.99,,,0.00,weatherlink.com 1.10,2013-02-17 12:05:00,
2013-02-17 07:20:00,18.6,16.0,29.47,West,265,0.0,-999.0,89,-99.99,,,0.00,weatherlink.com 1.10,2013-02-17 12:20:00,
2013-02-17 07:35:00,18.5,16.0,29.47,NNW,338,0.0,-999.0,89,-99.99,,,0.00,weatherlink.com 1.10,2013-02-17 12:35:00,
2013-02-17 07:51:00,18.5,16.0,29.46,WNW,296,0.0,-999.0,89,-99.99,,,0.00,weatherlink.com 1.10,2013-02-17 12:51:00,
2013-02-17 08:05:00,18.4,16.0,29.45,NNW,340,0.0,-999.0,89,-99.99,,,0.00,weatherlink.com 1.10,2013-02-17 13:05:00,
2013-02-17 08:21:00,18.4,16.0,29.43,West,259,0.0,-999.0,89,-99.99,,,0.00,weatherlink.com 1.10,2013-02-17 13:21:00,
2013-02-17 08:35:00,18.5,16.0,29.43,NNW,333,0.0,-999.0,89,-99.99,,,0.00,weatherlink.com 1.10,2013-02-17 13:35:00,
2013-02-17 08:51:00,18.5,16.0,29.42,NW,319,0.0,-999.0,89,-99.99,,,0.00,weatherlink.com 1.10,2013-02-17 13:51:00,
2013-02-17 09:06:00,18.6,16.0,29.41,WNW,289,0.0,-999.0,89,-99.99,,,0.00,weatherlink.com 1.10,2013-02-17 14:06:00,
2013-02-17 09:20:00,18.7,16.0,29.39,NNE,15,0.0,-999.0,88,-99.99,,,0.00,weatherlink.com 1.10,2013-02-17 14:20:00,
2013-02-17 09:35:00,18.9,16.0,29.39,West,281,0.0,-999.0,88,-99.99,,,0.00,weatherlink.com 1.10,2013-02-17 14:35:00,
2013-02-17 09:50:00,19.0,16.0,29.39,NW,310,0.0,-999.0,88,-99.99,,,0.00,weatherlink.com 1.10,2013-02-17 14:50:00,
2013-02-17 10:05:00,19.1,16.0,29.38,NNE,28,0.0,-999.0,88,-99.99,,,0.00,weatherlink.com 1.10,2013-02-17 15:05:00,
2013-02-17 10:21:00,19.1,16.0,29.38,NW,315,0.0,-999.0,87,-99.99,,,0.00,weatherlink.com 1.10,2013-02-17 15:21:00,
2013-02-17 10:35:00,19.3,16.0,29.37,West,279,0.0,-999.0,87,-99.99,,,0.00,weatherlink.com 1.10,2013-02-17 15:35:00,
2013-02-17 10:50:00,19.5,16.0,29.37,West,279,0.0,-999.0,87,-99.99,,,0.00,weatherlink.com 1.10,2013-02-17 15:50:00,
2013-02-17 11:05:00,19.8,16.0,29.37,WNW,293,0.0,-999.0,85,-99.99,,,0.00,weatherlink.com 1.10,2013-02-17 16:05:00,
2013-02-17 11:20:00,20.0,16.0,29.37,North,5,0.0,-999.0,84,-99.99,,,0.00,weatherlink.com 1.10,2013-02-17 16:20:00,
2013-02-17 11:36:00,20.3,16.0,29.37,West,271,0.0,-999.0,82,-99.99,,,0.00,weatherlink.com 1.10,2013-02-17 16:36:00,
2013-02-17 11:51:00,20.2,15.0,29.36,WSW,254,0.0,-999.0,81,-99.99,,,0.00,weatherlink.com 1.10,2013-02-17 16:51:00,
2013-02-17 12:05:00,20.4,15.0,29.37,West,270,0.0,-999.0,80,-99.99,,,0.00,weatherlink.com 1.10,2013-02-17 17:05:00,
2013-02-17 12:20:00,20.6,15.0,29.36,WSW,246,0.0,-999.0,78,-99.99,,,0.00,weatherlink.com 1.10,2013-02-17 17:20:00,
2013-02-17 12:35:00,20.8,14.0,29.36,WNW,288,0.0,-999.0,75,-99.99,,,0.00,weatherlink.com 1.10,2013-02-17 17:35:00,
2013-02-17 12:51:00,21.1,14.0,29.37,SW,219,0.0,-999.0,73,-99.99,,,0.00,weatherlink.com 1.10,2013-02-17 17:51:00,
2013-02-17 13:06:00,21.6,12.0,29.37,NW,311,0.0,-999.0,67,-99.99,,,0.00,weatherlink.com 1.10,2013-02-17 18:06:00,
2013-02-17 13:20:00,22.5,11.0,29.37,NW,311,0.0,-999.0,61,-99.99,,,0.00,weatherlink.com 1.10,2013-02-17 18:20:00,
2013-02-17 13:35:00,22.9,9.0,29.37,WNW,288,0.0,-999.0,56,-99.99,,,0.00,weatherlink.com 1.10,2013-02-17 18:35:00,
2013-02-17 13:50:00,23.1,8.0,29.37,NW,317,0.0,-999.0,53,-99.99,,,0.00,weatherlink.com 1.10,2013-02-17 18:50:00,
2013-02-17 14:05:00,23.1,6.0,29.37,WNW,292,0.0,-999.0,49,-99.99,,,0.00,weatherlink.com 1.10,2013-02-17 19:05:00,
2013-02-17 14:20:00,23.1,6.0,29.38,NW,324,0.0,-999.0,49,-99.99,,,0.00,weatherlink.com 1.10,2013-02-17 19:20:00,
2013-02-17 14:35:00,23.4,5.0,29.38,NW,304,0.0,-999.0,46,-99.99,,,0.00,weatherlink.com 1.10,2013-02-17 19:35:00,
2013-02-17 14:51:00,23.2,6.0,29.39,NW,304,0.0,-999.0,48,-99.99,,,0.00,weatherlink.com 1.10,2013-02-17 19:51:00,
2013-02-17 15:05:00,22.7,6.0,29.41,WSW,252,0.0,-999.0,48,-99.99,,,0.00,weatherlink.com 1.10,2013-02-17 20:05:00,
2013-02-17 15:21:00,22.4,5.0,29.41,WNW,291,0.0,-999.0,48,-99.99,,,0.00,weatherlink.com 1.10,2013-02-17 20:21:00,
2013-02-17 15:36:00,21.9,5.0,29.42,West,274,0.0,-999.0,49,-99.99,,,0.00,weatherlink.com 1.10,2013-02-17 20:36:00,
2013-02-17 15:51:00,21.8,5.0,29.43,WNW,291,0.0,-999.0,48,-99.99,,,0.00,weatherlink.com 1.10,2013-02-17 20:51:00,
2013-02-17 16:06:00,21.8,5.0,29.43,NW,309,0.0,-999.0,48,-99.99,,,0.00,weatherlink.com 1.10,2013-02-17 21:06:00,
2013-02-17 16:21:00,21.8,4.0,29.44,WNW,284,0.0,-999.0,47,-99.99,,,0.00,weatherlink.com 1.10,2013-02-17 21:21:00,
2013-02-17 16:36:00,21.6,4.0,29.45,NW,305,0.0,-999.0,47,-99.99,,,0.00,weatherlink.com 1.10,2013-02-17 21:36:00,
2013-02-17 16:51:00,21.5,4.0,29.46,WNW,282,0.0,-999.0,47,-99.99,,,0.00,weatherlink.com 1.10,2013-02-17 21:51:00,
2013-02-17 17:06:00,21.5,4.0,29.47,West,274,0.0,-999.0,47,-99.99,,,0.00,weatherlink.com 1.10,2013-02-17 22:06:00,
2013-02-17 17:21:00,21.5,4.0,29.47,WNW,296,0.0,-999.0,48,-99.99,,,0.00,weatherlink.com 1.10,2013-02-17 22:21:00,
2013-02-17 17:36:00,21.5,4.0,29.48,WNW,284,0.0,-999.0,47,-99.99,,,0.00,weatherlink.com 1.10,2013-02-17 22:36:00,
2013-02-17 17:51:00,21.5,4.0,29.48,NW,312,0.0,-999.0,47,-99.99,,,0.00,weatherlink.com 1.10,2013-02-17 22:51:00,
2013-02-17 18:06:00,21.5,4.0,29.49,West,279,0.0,-999.0,46,-99.99,,,0.00,weatherlink.com 1.10,2013-02-17 23:06:00,
2013-02-17 18:21:00,21.6,4.0,29.49,WNW,301,0.0,-999.0,47,-99.99,,,0.00,weatherlink.com 1.10,2013-02-17 23:21:00,
2013-02-17 18:36:00,21.5,4.0,29.50,NW,317,0.0,-999.0,48,-99.99,,,0.00,weatherlink.com 1.10,2013-02-17 23:36:00,
2013-02-17 18:51:00,21.5,4.0,29.50,WSW,258,0.0,-999.0,47,-99.99,,,0.00,weatherlink.com 1.10,2013-02-17 23:51:00,
2013-02-17 19:06:00,21.4,4.0,29.50,NW,321,0.0,-999.0,47,-99.99,,,0.00,weatherlink.com 1.10,2013-02-18 00:06:00,
2013-02-17 19:21:00,21.3,4.0,29.51,WNW,288,0.0,-999.0,47,-99.99,,,0.00,weatherlink.com 1.10,2013-02-18 00:21:00,
2013-02-17 19:36:00,21.2,4.0,29.51,NNW,329,0.0,-999.0,47,-99.99,,,0.00,weatherlink.com 1.10,2013-02-18 00:36:00,
2013-02-17 19:51:00,21.0,4.0,29.51,NW,306,0.0,-999.0,48,-99.99,,,0.00,weatherlink.com 1.10,2013-02-18 00:51:00,
2013-02-17 20:07:00,20.8,4.0,29.52,WNW,290,0.0,-999.0,48,-99.99,,,0.00,weatherlink.com 1.10,2013-02-18 01:07:00,
2013-02-17 20:21:00,20.8,3.0,29.53,WNW,290,0.0,-999.0,47,-99.99,,,0.00,weatherlink.com 1.10,2013-02-18 01:21:00,
2013-02-17 20:36:00,20.6,3.0,29.54,WNW,294,0.0,-999.0,46,-99.99,,,0.00,weatherlink.com 1.10,2013-02-18 01:36:00,
2013-02-17 20:51:00,20.3,2.0,29.55,WNW,296,0.0,-999.0,46,-99.99,,,0.00,weatherlink.com 1.10,2013-02-18 01:51:00,
2013-02-17 21:06:00,19.9,3.0,29.56,NW,323,0.0,-999.0,47,-99.99,,,0.00,weatherlink.com 1.10,2013-02-18 02:06:00,
2013-02-17 21:21:00,19.5,2.0,29.57,WNW,294,0.0,-999.0,47,-99.99,,,0.00,weatherlink.com 1.10,2013-02-18 02:21:00,
2013-02-17 21:36:00,19.3,2.0,29.58,NW,306,0.0,-999.0,47,-99.99,,,0.00,weatherlink.com 1.10,2013-02-18 02:36:00,
2013-02-17 21:51:00,18.9,2.0,29.59,West,271,0.0,-999.0,48,-99.99,,,0.00,weatherlink.com 1.10,2013-02-18 02:51:00,
2013-02-17 22:06:00,18.5,2.0,29.60,WNW,287,0.0,-999.0,49,-99.99,,,0.00,weatherlink.com 1.10,2013-02-18 03:06:00,
2013-02-17 22:21:00,18.1,2.0,29.61,NW,312,0.0,-999.0,49,-99.99,,,0.00,weatherlink.com 1.10,2013-02-18 03:21:00,
2013-02-17 22:36:00,17.9,2.0,29.61,NNW,336,0.0,-999.0,50,-99.99,,,0.00,weatherlink.com 1.10,2013-02-18 03:36:00,
2013-02-17 22:51:00,17.5,2.0,29.63,WNW,291,0.0,-999.0,50,-99.99,,,0.00,weatherlink.com 1.10,2013-02-18 03:51:00,
2013-02-17 23:06:00,17.2,2.0,29.63,West,281,0.0,-999.0,51,-99.99,,,0.00,weatherlink.com 1.10,2013-02-18 04:06:00,
2013-02-17 23:21:00,17.0,2.0,29.64,WNW,284,0.0,-999.0,52,-99.99,,,0.00,weatherlink.com 1.10,2013-02-18 04:21:00,
2013-02-17 23:36:00,17.0,2.0,29.64,WNW,294,0.0,-999.0,52,-99.99,,,0.00,weatherlink.com 1.10,2013-02-18 04:36:00,
2013-02-17 23:51:00,16.9,2.0,29.65,WNW,300,0.0,-999.0,52,-99.99,,,0.00,weatherlink.com 1.10,2013-02-18 04:51:00,